createdAt,value
2019-02-09T00:02:06.005Z,3.50
2019-02-09T00:04:32.074Z,3.30
2019-02-09T00:06:58.284Z,3.40
2019-02-09T00:09:24.430Z,3.30
2019-02-09T00:11:50.714Z,3.40
2019-02-09T00:14:16.856Z,3.40
2019-02-09T00:16:43.055Z,3.40
2019-02-09T00:19:09.228Z,3.50
2019-02-09T00:21:35.478Z,3.40
2019-02-09T00:24:01.543Z,3.30
2019-02-09T00:26:27.616Z,3.30
2019-02-09T00:28:53.750Z,3.30
2019-02-09T00:31:19.926Z,3.30
2019-02-09T00:33:46.022Z,3.30
2019-02-09T00:36:12.103Z,3.20
2019-02-09T00:38:38.564Z,3.20
2019-02-09T00:41:04.790Z,3.20
2019-02-09T00:43:31.012Z,3.30
2019-02-09T00:45:57.069Z,3.20
2019-02-09T00:48:23.215Z,3.20
2019-02-09T00:50:49.378Z,3.20
2019-02-09T00:53:15.511Z,3.00
2019-02-09T00:55:41.842Z,3.10
2019-02-09T00:58:08.143Z,3.10
2019-02-09T01:00:34.340Z,3.10
2019-02-09T01:03:00.661Z,3.00
2019-02-09T01:05:32.628Z,3.00
2019-02-09T01:07:58.946Z,3.00
2019-02-09T01:10:27.643Z,3.00
2019-02-09T01:12:53.821Z,3.00
2019-02-09T01:15:19.930Z,2.90
2019-02-09T01:17:46.738Z,2.80
2019-02-09T01:20:16.281Z,2.90
2019-02-09T01:22:42.710Z,2.90
2019-02-09T01:25:09.718Z,2.80
2019-02-09T01:27:36.395Z,2.80
2019-02-09T01:30:06.249Z,2.80
2019-02-09T01:32:34.475Z,2.80
2019-02-09T01:35:00.634Z,2.70
2019-02-09T01:37:26.734Z,2.80
2019-02-09T01:39:52.845Z,2.90
2019-02-09T01:42:18.958Z,2.90
2019-02-09T01:44:45.091Z,2.80
2019-02-09T01:47:11.162Z,2.70
2019-02-09T01:49:37.410Z,2.70
2019-02-09T01:52:04.059Z,2.70
2019-02-09T01:54:30.173Z,2.80
2019-02-09T01:56:56.432Z,2.80
2019-02-09T01:59:22.745Z,2.80
2019-02-09T02:01:48.881Z,2.70
2019-02-09T02:04:15.088Z,2.70
2019-02-09T02:06:41.279Z,2.60
2019-02-09T02:09:07.606Z,2.60
2019-02-09T02:11:33.712Z,2.60
2019-02-09T02:13:59.918Z,2.60
2019-02-09T02:16:26.328Z,2.60
2019-02-09T02:18:52.451Z,2.70
2019-02-09T02:21:18.681Z,2.80
2019-02-09T02:23:44.827Z,2.90
2019-02-09T02:26:11.067Z,2.90
2019-02-09T02:28:37.261Z,2.90
2019-02-09T02:31:03.578Z,2.90
2019-02-09T02:33:29.763Z,3.00
2019-02-09T02:35:55.831Z,3.00
2019-02-09T02:38:21.927Z,3.10
2019-02-09T02:40:48.056Z,3.10
2019-02-09T02:43:14.391Z,3.30
2019-02-09T02:45:41.324Z,3.30
2019-02-09T02:48:07.554Z,3.30
2019-02-09T02:50:34.045Z,3.30
2019-02-09T02:53:00.300Z,3.30
2019-02-09T02:55:31.857Z,3.40
2019-02-09T02:57:58.096Z,3.40
2019-02-09T03:00:32.488Z,3.50
2019-02-09T03:02:54.923Z,3.60
2019-02-09T03:05:22.619Z,3.70
2019-02-09T03:07:48.928Z,3.70
2019-02-09T03:10:16.215Z,3.70
2019-02-09T03:12:42.473Z,3.80
2019-02-09T03:15:17.702Z,3.80
2019-02-09T03:17:43.795Z,3.80
2019-02-09T03:20:13.101Z,3.70
2019-02-09T03:22:39.278Z,3.80
2019-02-09T03:25:09.237Z,3.80
2019-02-09T03:27:35.300Z,3.90
2019-02-09T03:30:01.966Z,3.80
2019-02-09T03:32:28.159Z,3.80
2019-02-09T03:34:54.299Z,3.90
2019-02-09T03:37:20.487Z,4.00
2019-02-09T03:39:46.604Z,4.10
2019-02-09T03:42:13.069Z,4.00
2019-02-09T03:44:39.248Z,4.00
2019-02-09T03:47:05.390Z,4.10
2019-02-09T03:49:31.462Z,4.20
2019-02-09T03:51:57.550Z,4.20
2019-02-09T03:54:23.667Z,4.40
2019-02-09T03:56:49.862Z,4.30
2019-02-09T03:59:16.111Z,4.30
2019-02-09T04:01:46.409Z,4.40
2019-02-09T04:04:12.614Z,4.30
2019-02-09T04:06:38.802Z,4.30
2019-02-09T04:09:06.174Z,4.30
2019-02-09T04:11:32.382Z,4.30
2019-02-09T04:13:58.576Z,4.30
2019-02-09T04:16:24.649Z,4.20
2019-02-09T04:18:50.745Z,4.30
2019-02-09T04:21:16.894Z,4.20
2019-02-09T04:23:43.127Z,4.30
2019-02-09T04:26:09.405Z,4.20
2019-02-09T04:28:35.558Z,4.20
2019-02-09T04:31:06.248Z,4.10
2019-02-09T04:33:29.888Z,4.10
2019-02-09T04:35:56.115Z,4.10
2019-02-09T04:38:22.306Z,4.10
2019-02-09T04:40:48.434Z,4.10
2019-02-09T04:43:14.624Z,4.10
2019-02-09T04:45:40.731Z,4.10
2019-02-09T04:48:07.057Z,4.10
2019-02-09T04:50:35.156Z,4.10
2019-02-09T04:53:01.333Z,4.10
2019-02-09T04:55:27.685Z,4.10
2019-02-09T04:57:54.268Z,4.10
2019-02-09T05:00:22.753Z,4.10
2019-02-09T05:02:49.319Z,4.10
2019-02-09T05:05:15.747Z,4.10
2019-02-09T05:07:42.163Z,4.20
2019-02-09T05:10:13.784Z,4.10
2019-02-09T05:12:39.961Z,4.10
2019-02-09T05:15:08.826Z,4.00
2019-02-09T05:17:34.993Z,3.90
2019-02-09T05:20:01.289Z,3.90
2019-02-09T05:22:27.434Z,3.80
2019-02-09T05:24:53.625Z,3.80
2019-02-09T05:27:19.861Z,3.80
2019-02-09T05:29:46.087Z,3.90
2019-02-09T05:32:12.272Z,3.90
2019-02-09T05:34:38.417Z,3.90
2019-02-09T05:37:04.711Z,3.80
2019-02-09T05:39:30.827Z,3.80
2019-02-09T05:41:56.958Z,3.70
2019-02-09T05:44:23.173Z,3.80
2019-02-09T05:46:49.357Z,3.80
2019-02-09T05:49:15.439Z,3.80
2019-02-09T05:51:41.539Z,3.80
2019-02-09T05:54:08.139Z,3.80
2019-02-09T05:56:34.240Z,3.80
2019-02-09T05:59:00.394Z,3.80
2019-02-09T06:01:32.448Z,3.90
2019-02-09T06:03:54.657Z,3.90
2019-02-09T06:06:20.779Z,3.90
2019-02-09T06:08:46.865Z,3.90
2019-02-09T06:11:13.002Z,3.90
2019-02-09T06:13:39.250Z,3.90
2019-02-09T06:16:05.554Z,3.90
2019-02-09T06:18:31.755Z,3.90
2019-02-09T06:20:57.992Z,3.90
2019-02-09T06:23:24.191Z,3.90
2019-02-09T06:25:50.418Z,3.90
2019-02-09T06:28:16.565Z,3.90
2019-02-09T06:30:42.623Z,3.80
2019-02-09T06:33:08.743Z,3.80
2019-02-09T06:35:34.817Z,3.80
2019-02-09T06:38:01.093Z,3.80
2019-02-09T06:40:37.855Z,3.70
2019-02-09T06:43:04.193Z,3.80
2019-02-09T06:45:30.455Z,3.80
2019-02-09T06:48:23.840Z,3.90
2019-02-09T06:50:50.152Z,4.00
2019-02-09T06:53:19.905Z,4.10
2019-02-09T06:55:46.097Z,4.20
2019-02-09T06:58:12.422Z,4.30
2019-02-09T07:00:38.955Z,4.30
2019-02-09T07:03:05.660Z,4.30
2019-02-09T07:05:31.920Z,4.40
2019-02-09T07:07:58.062Z,4.40
2019-02-09T07:10:24.276Z,4.50
2019-02-09T07:12:50.619Z,4.50
2019-02-09T07:15:31.258Z,4.60
2019-02-09T07:17:57.600Z,4.70
2019-02-09T07:20:23.814Z,4.70
2019-02-09T07:22:49.913Z,4.70
2019-02-09T07:25:16.399Z,4.80
2019-02-09T07:27:43.116Z,4.80
2019-02-09T07:30:13.023Z,4.80
2019-02-09T07:32:39.124Z,4.90
2019-02-09T07:35:08.602Z,4.90
2019-02-09T07:37:34.796Z,4.90
2019-02-09T07:40:01.002Z,5.00
2019-02-09T07:42:27.127Z,5.10
2019-02-09T07:44:53.236Z,5.20
2019-02-09T07:47:19.321Z,5.30
2019-02-09T07:49:45.560Z,5.60
2019-02-09T07:52:11.747Z,5.80
2019-02-09T07:54:37.915Z,6.00
2019-02-09T07:57:04.520Z,6.10
2019-02-09T07:59:30.692Z,6.10
2019-02-09T08:02:04.244Z,6.40
2019-02-09T08:04:24.846Z,6.50
2019-02-09T08:06:50.994Z,6.60
2019-02-09T08:09:17.120Z,7.10
2019-02-09T08:11:43.262Z,7.60
2019-02-09T08:14:09.380Z,7.40
2019-02-09T08:16:35.699Z,7.10
2019-02-09T08:19:01.825Z,7.00
2019-02-09T08:21:28.106Z,6.90
2019-02-09T08:23:54.200Z,7.00
2019-02-09T08:26:20.281Z,7.00
2019-02-09T08:28:46.409Z,7.10
2019-02-09T08:31:12.599Z,7.00
2019-02-09T08:33:38.716Z,7.10
2019-02-09T08:36:04.928Z,7.10
2019-02-09T08:38:31.022Z,7.10
2019-02-09T08:40:57.131Z,7.10
2019-02-09T08:43:23.242Z,7.10
2019-02-09T08:45:49.389Z,7.20
2019-02-09T08:48:15.531Z,7.40
2019-02-09T08:50:48.174Z,7.40
2019-02-09T08:53:14.417Z,7.60
2019-02-09T08:55:40.859Z,7.50
2019-02-09T08:58:06.933Z,7.60
2019-02-09T09:00:34.779Z,7.60
2019-02-09T09:03:01.096Z,7.40
2019-02-09T09:05:27.392Z,7.40
2019-02-09T09:07:53.636Z,7.30
2019-02-09T09:10:22.947Z,7.30
2019-02-09T09:12:49.377Z,7.30
2019-02-09T09:15:25.173Z,7.30
2019-02-09T09:17:51.369Z,7.30
2019-02-09T09:20:27.023Z,7.40
2019-02-09T09:22:53.156Z,7.40
2019-02-09T09:25:19.555Z,7.40
2019-02-09T09:27:45.888Z,7.50
2019-02-09T09:30:15.905Z,7.50
2019-02-09T09:32:42.129Z,7.40
2019-02-09T09:35:09.934Z,7.40
2019-02-09T09:37:36.299Z,7.40
2019-02-09T09:40:06.318Z,7.50
2019-02-09T09:42:32.472Z,7.40
2019-02-09T09:44:58.687Z,7.40
2019-02-09T09:47:24.884Z,7.40
2019-02-09T09:49:51.222Z,7.40
2019-02-09T09:52:17.421Z,7.50
2019-02-09T09:54:43.545Z,7.50
2019-02-09T09:57:09.709Z,7.60
2019-02-09T09:59:35.788Z,7.70
2019-02-09T10:02:02.008Z,7.70
2019-02-09T10:04:28.317Z,7.90
2019-02-09T10:06:54.627Z,8.00
2019-02-09T10:09:20.878Z,7.90
2019-02-09T10:11:46.961Z,7.90
2019-02-09T10:14:13.059Z,7.80
2019-02-09T10:16:39.297Z,7.80
2019-02-09T10:19:05.489Z,7.80
2019-02-09T10:21:31.605Z,7.80
2019-02-09T10:23:57.835Z,7.80
2019-02-09T10:26:23.905Z,7.90
2019-02-09T10:28:50.052Z,8.00
2019-02-09T10:31:16.245Z,8.10
2019-02-09T10:33:42.428Z,8.10
2019-02-09T10:36:09.040Z,8.10
2019-02-09T10:38:35.206Z,8.20
2019-02-09T10:41:01.361Z,8.20
2019-02-09T10:43:27.584Z,8.20
2019-02-09T10:45:53.885Z,8.20
2019-02-09T10:48:20.102Z,8.30
2019-02-09T10:50:46.524Z,8.30
2019-02-09T10:53:13.161Z,8.40
2019-02-09T10:55:39.423Z,8.70
2019-02-09T10:58:06.439Z,9.10
2019-02-09T11:00:35.900Z,9.60
2019-02-09T11:03:03.298Z,9.70
2019-02-09T11:05:30.041Z,10.00
2019-02-09T11:07:56.259Z,10.50
2019-02-09T11:10:24.741Z,10.60
2019-02-09T11:12:51.379Z,10.60
2019-02-09T11:15:21.696Z,10.60
2019-02-09T11:17:48.129Z,10.30
2019-02-09T11:20:20.236Z,10.40
2019-02-09T11:22:46.750Z,10.80
2019-02-09T11:25:17.468Z,11.00
2019-02-09T11:27:43.622Z,11.20
2019-02-09T11:30:13.110Z,11.40
2019-02-09T11:32:39.423Z,11.80
2019-02-09T11:35:08.217Z,11.70
2019-02-09T11:37:34.323Z,11.40
2019-02-09T11:40:00.462Z,10.70
2019-02-09T11:42:26.740Z,10.50
2019-02-09T11:44:52.926Z,10.00
2019-02-09T11:47:19.112Z,10.00
2019-02-09T11:49:45.423Z,9.80
2019-02-09T11:52:11.575Z,9.80
2019-02-09T11:54:37.797Z,9.80
2019-02-09T11:57:03.876Z,9.70
2019-02-09T11:59:30.142Z,9.70
2019-02-09T12:01:56.266Z,10.00
2019-02-09T12:04:22.370Z,10.10
2019-02-09T12:06:48.549Z,10.40
2019-02-09T12:09:14.695Z,10.40
2019-02-09T12:11:40.820Z,10.60
2019-02-09T12:14:07.044Z,10.70
2019-02-09T12:16:33.496Z,10.70
2019-02-09T12:18:59.749Z,10.40
2019-02-09T12:21:25.862Z,10.30
2019-02-09T12:23:52.056Z,10.30
2019-02-09T12:26:18.421Z,10.20
2019-02-09T12:28:44.650Z,10.10
2019-02-09T12:31:10.979Z,10.10
2019-02-09T12:33:37.060Z,10.00
2019-02-09T12:36:03.516Z,9.80
2019-02-09T12:38:29.844Z,9.90
2019-02-09T12:40:55.922Z,10.00
2019-02-09T12:43:22.154Z,10.20
2019-02-09T12:45:48.362Z,10.60
2019-02-09T12:48:14.576Z,10.60
2019-02-09T12:50:40.864Z,10.10
2019-02-09T12:53:07.151Z,10.30
2019-02-09T12:55:33.454Z,10.10
2019-02-09T12:57:59.789Z,10.00
2019-02-09T13:00:39.224Z,9.80
2019-02-09T13:03:17.884Z,9.70
2019-02-09T13:05:44.048Z,9.60
2019-02-09T13:08:10.307Z,9.60
2019-02-09T13:10:36.537Z,9.60
2019-02-09T13:13:03.132Z,9.70
2019-02-09T13:15:32.856Z,9.80
2019-02-09T13:17:59.309Z,9.80
2019-02-09T13:20:27.310Z,9.70
2019-02-09T13:22:53.553Z,9.80
2019-02-09T13:25:19.848Z,9.80
2019-02-09T13:27:46.409Z,10.00
2019-02-09T13:30:16.010Z,10.10
2019-02-09T13:32:42.247Z,10.10
2019-02-09T13:35:10.579Z,10.20
2019-02-09T13:37:36.797Z,10.50
2019-02-09T13:40:08.924Z,10.80
2019-02-09T13:42:34.990Z,10.80
2019-02-09T13:45:01.115Z,10.90
2019-02-09T13:47:27.325Z,11.00
2019-02-09T13:49:53.457Z,11.00
2019-02-09T13:52:19.536Z,11.00
2019-02-09T13:54:45.631Z,11.00
2019-02-09T13:57:11.707Z,10.90
2019-02-09T13:59:37.955Z,10.90
2019-02-09T14:02:04.362Z,11.00
2019-02-09T14:04:30.464Z,11.30
2019-02-09T14:06:56.696Z,11.00
2019-02-09T14:09:22.917Z,11.20
2019-02-09T14:11:49.112Z,11.60
2019-02-09T14:14:15.240Z,11.50
2019-02-09T14:16:41.356Z,11.60
2019-02-09T14:19:07.432Z,12.10
2019-02-09T14:21:33.588Z,11.70
2019-02-09T14:23:59.762Z,11.60
2019-02-09T14:26:25.922Z,11.30
2019-02-09T14:28:52.149Z,11.40
2019-02-09T14:31:18.363Z,11.20
2019-02-09T14:33:44.507Z,11.10
2019-02-09T14:36:10.714Z,11.10
2019-02-09T14:38:36.824Z,11.00
2019-02-09T14:41:03.395Z,10.80
2019-02-09T14:43:29.571Z,10.70
2019-02-09T14:45:55.664Z,10.30
2019-02-09T14:48:21.890Z,10.30
2019-02-09T14:50:48.194Z,10.20
2019-02-09T14:53:14.532Z,10.10
2019-02-09T14:55:41.035Z,10.00
2019-02-09T14:58:07.735Z,10.00
2019-02-09T15:00:37.727Z,9.90
2019-02-09T15:03:05.387Z,9.90
2019-02-09T15:05:31.591Z,9.90
2019-02-09T15:07:57.893Z,9.70
2019-02-09T15:10:24.144Z,9.70
2019-02-09T15:12:50.432Z,9.70
2019-02-09T15:15:25.853Z,9.60
2019-02-09T15:17:52.073Z,9.60
2019-02-09T15:20:21.769Z,9.60
2019-02-09T15:22:47.950Z,9.60
2019-02-09T15:25:14.530Z,9.50
2019-02-09T15:27:40.757Z,9.50
2019-02-09T15:30:13.232Z,9.50
2019-02-09T15:32:39.347Z,9.50
2019-02-09T15:35:12.024Z,9.40
2019-02-09T15:37:38.147Z,9.40
2019-02-09T15:40:13.814Z,9.40
2019-02-09T15:42:39.925Z,9.40
2019-02-09T15:45:09.857Z,9.30
2019-02-09T15:47:35.965Z,9.30
2019-02-09T15:50:05.266Z,9.30
2019-02-09T15:52:31.386Z,9.30
2019-02-09T15:54:57.492Z,9.20
2019-02-09T15:57:23.764Z,9.20
2019-02-09T15:59:50.381Z,9.20
2019-02-09T16:02:16.614Z,9.10
2019-02-09T16:04:42.812Z,9.20
2019-02-09T16:07:09.013Z,9.10
2019-02-09T16:09:35.168Z,9.10
2019-02-09T16:12:01.390Z,9.20
2019-02-09T16:14:27.543Z,9.10
2019-02-09T16:16:53.776Z,9.10
2019-02-09T16:19:19.949Z,9.00
2019-02-09T16:21:46.132Z,9.00
2019-02-09T16:24:12.248Z,9.00
2019-02-09T16:26:38.398Z,9.00
2019-02-09T16:29:04.508Z,9.00
2019-02-09T16:31:30.727Z,9.00
2019-02-09T16:33:56.859Z,8.90
2019-02-09T16:36:23.084Z,8.90
2019-02-09T16:38:49.581Z,8.90
2019-02-09T16:41:15.712Z,8.90
2019-02-09T16:43:41.875Z,8.80
2019-02-09T16:46:08.291Z,8.80
2019-02-09T16:48:34.446Z,8.90
2019-02-09T16:51:00.514Z,8.90
2019-02-09T16:53:26.678Z,8.80
2019-02-09T16:55:53.225Z,8.80
2019-02-09T16:58:19.677Z,8.70
2019-02-09T17:00:46.038Z,8.80
2019-02-09T17:03:12.510Z,8.70
2019-02-09T17:05:39.445Z,8.70
2019-02-09T17:08:05.978Z,8.70
2019-02-09T17:10:32.302Z,8.70
2019-02-09T17:12:58.424Z,8.70
2019-02-09T17:15:28.405Z,8.70
2019-02-09T17:17:54.692Z,8.60
2019-02-09T17:20:21.169Z,8.60
2019-02-09T17:22:47.560Z,8.70
2019-02-09T17:25:17.605Z,8.90
2019-02-09T17:27:44.246Z,8.70
2019-02-09T17:30:31.719Z,8.70
2019-02-09T17:32:58.144Z,8.60
2019-02-09T17:35:24.574Z,8.50
2019-02-09T17:37:51.263Z,8.40
2019-02-09T17:40:24.152Z,8.40
2019-02-09T17:42:53.285Z,8.30
2019-02-09T17:45:22.011Z,8.30
2019-02-09T17:47:48.148Z,8.10
2019-02-09T17:50:14.468Z,8.10
2019-02-09T17:52:40.842Z,8.00
2019-02-09T17:55:13.922Z,7.90
2019-02-09T17:57:40.125Z,8.00
2019-02-09T18:00:13.014Z,8.00
2019-02-09T18:02:39.269Z,7.90
2019-02-09T18:05:05.955Z,7.80
2019-02-09T18:07:32.109Z,7.70
2019-02-09T18:09:58.321Z,7.60
2019-02-09T18:12:24.512Z,7.60
2019-02-09T18:14:50.621Z,7.60
2019-02-09T18:17:16.826Z,7.50
2019-02-09T18:19:42.986Z,7.40
2019-02-09T18:22:09.197Z,7.40
2019-02-09T18:24:35.313Z,7.30
2019-02-09T18:27:01.408Z,7.40
2019-02-09T18:29:27.532Z,7.50
2019-02-09T18:31:53.744Z,7.50
2019-02-09T18:34:19.975Z,7.50
2019-02-09T18:36:46.111Z,7.50
2019-02-09T18:39:12.561Z,7.60
2019-02-09T18:41:39.518Z,7.60
2019-02-09T18:44:05.630Z,7.50
2019-02-09T18:46:31.758Z,7.50
2019-02-09T18:48:57.980Z,7.50
2019-02-09T18:51:24.092Z,7.60
2019-02-09T18:53:50.244Z,7.50
2019-02-09T18:56:16.474Z,7.50
2019-02-09T18:58:42.747Z,7.50
2019-02-09T19:01:09.008Z,7.60
2019-02-09T19:03:35.263Z,7.60
2019-02-09T19:06:01.457Z,7.60
2019-02-09T19:08:27.535Z,7.50
2019-02-09T19:10:53.658Z,7.40
2019-02-09T19:13:19.978Z,7.40
2019-02-09T19:15:46.459Z,7.40
2019-02-09T19:18:12.681Z,7.40
2019-02-09T19:20:41.910Z,7.40
2019-02-09T19:23:08.311Z,7.30
2019-02-09T19:25:35.126Z,7.30
2019-02-09T19:28:01.236Z,7.30
2019-02-09T19:30:27.362Z,7.20
2019-02-09T19:32:54.121Z,7.30
2019-02-09T19:35:20.607Z,7.20
2019-02-09T19:37:46.905Z,7.20
2019-02-09T19:40:18.961Z,7.20
2019-02-09T19:42:46.504Z,7.20
2019-02-09T19:45:18.936Z,7.20
2019-02-09T19:47:45.846Z,7.10
2019-02-09T19:50:13.586Z,7.10
2019-02-09T19:52:40.174Z,7.10
2019-02-09T19:55:12.798Z,7.00
2019-02-09T19:57:38.984Z,6.90
2019-02-09T20:00:18.289Z,6.90
2019-02-09T20:02:44.398Z,6.90
2019-02-09T20:05:10.837Z,6.90
2019-02-09T20:07:37.023Z,6.90
2019-02-09T20:10:23.577Z,7.10
2019-02-09T20:12:49.891Z,7.20
2019-02-09T20:15:16.407Z,7.20
2019-02-09T20:17:42.555Z,7.30
2019-02-09T20:20:12.472Z,7.30
2019-02-09T20:22:38.572Z,7.30
2019-02-09T20:25:08.542Z,7.30
2019-02-09T20:27:34.620Z,7.30
2019-02-09T20:30:00.774Z,7.30
2019-02-09T20:32:27.021Z,7.30
2019-02-09T20:34:53.288Z,7.20
2019-02-09T20:37:19.425Z,7.20
2019-02-09T20:39:45.614Z,7.10
2019-02-09T20:42:11.711Z,7.10
2019-02-09T20:44:37.934Z,7.10
2019-02-09T20:47:04.340Z,7.10
2019-02-09T20:49:30.552Z,7.00
2019-02-09T20:51:56.683Z,7.00
2019-02-09T20:54:22.804Z,7.00
2019-02-09T20:56:49.007Z,6.90
2019-02-09T20:59:15.146Z,6.80
2019-02-09T21:01:41.388Z,6.80
2019-02-09T21:04:07.603Z,6.80
2019-02-09T21:06:33.883Z,6.70
2019-02-09T21:09:00.046Z,6.70
2019-02-09T21:11:26.251Z,6.60
2019-02-09T21:13:52.547Z,6.60
2019-02-09T21:16:18.784Z,6.60
2019-02-09T21:18:44.996Z,6.50
2019-02-09T21:21:11.082Z,6.50
2019-02-09T21:23:37.212Z,6.40
2019-02-09T21:26:03.571Z,6.40
2019-02-09T21:28:29.765Z,6.40
2019-02-09T21:30:55.895Z,6.40
2019-02-09T21:33:22.016Z,6.40
2019-02-09T21:35:48.168Z,6.40
2019-02-09T21:38:14.372Z,6.40
2019-02-09T21:40:40.463Z,6.40
2019-02-09T21:43:06.723Z,6.40
2019-02-09T21:45:33.127Z,6.40
2019-02-09T21:47:59.239Z,6.50
2019-02-09T21:50:28.585Z,6.40
2019-02-09T21:52:55.116Z,6.50
2019-02-09T21:55:21.832Z,6.40
2019-02-09T21:57:48.047Z,6.40
2019-02-09T22:00:19.510Z,6.40
2019-02-09T22:02:45.765Z,6.30
2019-02-09T22:05:12.066Z,6.30
2019-02-09T22:07:38.740Z,6.30
2019-02-09T22:10:14.384Z,6.30
2019-02-09T22:12:40.639Z,6.20
2019-02-09T22:15:09.545Z,6.20
2019-02-09T22:17:35.741Z,6.10
2019-02-09T22:20:08.439Z,6.10
2019-02-09T22:22:34.540Z,6.10
2019-02-09T22:25:00.841Z,6.00
2019-02-09T22:27:27.227Z,6.00
2019-02-09T22:29:53.499Z,5.90
2019-02-09T22:32:19.725Z,5.80
2019-02-09T22:34:45.831Z,5.70
2019-02-09T22:37:11.942Z,5.70
2019-02-09T22:39:38.101Z,5.70
2019-02-09T22:42:04.375Z,5.60
2019-02-09T22:44:30.639Z,5.50
2019-02-09T22:46:56.797Z,5.50
2019-02-09T22:49:22.940Z,5.50
2019-02-09T22:51:49.075Z,5.50
2019-02-09T22:54:15.263Z,5.60
2019-02-09T22:56:41.421Z,5.60
2019-02-09T22:59:07.649Z,5.60
2019-02-09T23:01:37.669Z,5.60
2019-02-09T23:04:13.429Z,5.60
2019-02-09T23:06:43.449Z,5.60
2019-02-09T23:09:12.027Z,5.50
2019-02-09T23:11:38.173Z,5.40
2019-02-09T23:14:04.351Z,5.40
2019-02-09T23:16:30.526Z,5.30
2019-02-09T23:18:56.755Z,5.30
2019-02-09T23:21:22.921Z,5.20
2019-02-09T23:23:49.030Z,5.20
2019-02-09T23:26:15.227Z,5.00
2019-02-09T23:28:41.440Z,5.10
2019-02-09T23:31:07.609Z,5.10
2019-02-09T23:33:33.818Z,5.10
2019-02-09T23:36:00.372Z,5.20
2019-02-09T23:38:26.599Z,5.20
2019-02-09T23:40:52.801Z,5.20
2019-02-09T23:43:18.887Z,5.20
2019-02-09T23:45:45.130Z,5.20
2019-02-09T23:48:11.236Z,5.00
2019-02-09T23:50:37.381Z,5.00
2019-02-09T23:53:03.735Z,5.00
2019-02-09T23:55:29.940Z,4.90
2019-02-09T23:57:56.034Z,4.70
